sensor_id;sensor_type;location;lat;lon;timestamp;temperature;humidity
3550;DHT22;45572;48.804;8.330;2023-03-26T00:00:51;8.90;96.10
3550;DHT22;45572;48.804;8.330;2023-03-26T00:03:20;8.90;96.00
3550;DHT22;45572;48.804;8.330;2023-03-26T00:06:00;8.90;96.10
3550;DHT22;45572;48.804;8.330;2023-03-26T00:08:29;8.90;96.00
3550;DHT22;45572;48.804;8.330;2023-03-26T00:10:57;9.00;95.90
3550;DHT22;45572;48.804;8.330;2023-03-26T00:13:27;8.90;95.90
3550;DHT22;45572;48.804;8.330;2023-03-26T00:15:55;8.90;95.70
3550;DHT22;45572;48.804;8.330;2023-03-26T00:18:23;8.80;95.60
3550;DHT22;45572;48.804;8.330;2023-03-26T00:20:57;8.80;95.70
3550;DHT22;45572;48.804;8.330;2023-03-26T00:23:26;8.80;95.50
3550;DHT22;45572;48.804;8.330;2023-03-26T00:25:55;8.80;95.50
3550;DHT22;45572;48.804;8.330;2023-03-26T00:28:23;8.80;95.40
3550;DHT22;45572;48.804;8.330;2023-03-26T00:30:56;8.80;95.40
3550;DHT22;45572;48.804;8.330;2023-03-26T00:33:24;8.70;95.50
3550;DHT22;45572;48.804;8.330;2023-03-26T00:35:53;8.70;95.50
3550;DHT22;45572;48.804;8.330;2023-03-26T00:38:24;8.70;95.50
3550;DHT22;45572;48.804;8.330;2023-03-26T00:40:52;8.80;95.50
3550;DHT22;45572;48.804;8.330;2023-03-26T00:43:22;8.80;95.30
3550;DHT22;45572;48.804;8.330;2023-03-26T00:45:53;8.80;95.00
3550;DHT22;45572;48.804;8.330;2023-03-26T00:48:22;8.70;95.10
3550;DHT22;45572;48.804;8.330;2023-03-26T00:51:08;8.70;95.50
3550;DHT22;45572;48.804;8.330;2023-03-26T00:53:37;8.70;95.50
3550;DHT22;45572;48.804;8.330;2023-03-26T00:56:07;8.70;95.70
3550;DHT22;45572;48.804;8.330;2023-03-26T00:58:35;8.70;95.30
3550;DHT22;45572;48.804;8.330;2023-03-26T01:01:06;8.70;95.70
3550;DHT22;45572;48.804;8.330;2023-03-26T01:03:36;8.70;95.50
3550;DHT22;45572;48.804;8.330;2023-03-26T01:06:06;8.80;95.50
3550;DHT22;45572;48.804;8.330;2023-03-26T01:08:40;8.80;95.00
3550;DHT22;45572;48.804;8.330;2023-03-26T01:11:13;8.80;95.20
3550;DHT22;45572;48.804;8.330;2023-03-26T01:13:46;8.70;95.00
3550;DHT22;45572;48.804;8.330;2023-03-26T01:16:21;8.70;95.10
3550;DHT22;45572;48.804;8.330;2023-03-26T01:18:50;8.70;95.20
3550;DHT22;45572;48.804;8.330;2023-03-26T01:21:22;8.70;95.10
3550;DHT22;45572;48.804;8.330;2023-03-26T01:23:57;8.70;94.90
3550;DHT22;45572;48.804;8.330;2023-03-26T01:26:36;8.70;94.80
3550;DHT22;45572;48.804;8.330;2023-03-26T01:29:11;8.70;94.70
3550;DHT22;45572;48.804;8.330;2023-03-26T01:31:53;8.70;94.70
3550;DHT22;45572;48.804;8.330;2023-03-26T01:34:28;8.70;94.80
3550;DHT22;45572;48.804;8.330;2023-03-26T01:37:10;8.70;94.90
3550;DHT22;45572;48.804;8.330;2023-03-26T01:39:47;8.70;94.80
3550;DHT22;45572;48.804;8.330;2023-03-26T01:42:25;8.60;94.80
3550;DHT22;45572;48.804;8.330;2023-03-26T01:44:58;8.50;94.80
3550;DHT22;45572;48.804;8.330;2023-03-26T01:47:28;8.50;95.00
3550;DHT22;45572;48.804;8.330;2023-03-26T01:49:56;8.50;95.10
3550;DHT22;45572;48.804;8.330;2023-03-26T01:52:24;8.40;95.30
3550;DHT22;45572;48.804;8.330;2023-03-26T01:54:54;8.30;95.60
3550;DHT22;45572;48.804;8.330;2023-03-26T01:57:29;8.20;95.70
3550;DHT22;45572;48.804;8.330;2023-03-26T02:00:07;8.20;96.20
3550;DHT22;45572;48.804;8.330;2023-03-26T02:03:04;8.30;95.80
3550;DHT22;45572;48.804;8.330;2023-03-26T02:05:38;8.20;96.00
3550;DHT22;45572;48.804;8.330;2023-03-26T02:08:16;8.30;96.20
3550;DHT22;45572;48.804;8.330;2023-03-26T02:10:50;8.20;96.00
3550;DHT22;45572;48.804;8.330;2023-03-26T02:13:19;8.20;96.00
3550;DHT22;45572;48.804;8.330;2023-03-26T02:15:55;8.10;96.10
3550;DHT22;45572;48.804;8.330;2023-03-26T02:18:25;8.20;96.20
3550;DHT22;45572;48.804;8.330;2023-03-26T02:21:05;8.20;95.80
3550;DHT22;45572;48.804;8.330;2023-03-26T02:23:41;8.20;95.70
3550;DHT22;45572;48.804;8.330;2023-03-26T02:26:14;8.30;95.60
3550;DHT22;45572;48.804;8.330;2023-03-26T02:29:02;8.30;95.50
3550;DHT22;45572;48.804;8.330;2023-03-26T02:31:31;8.30;95.30
3550;DHT22;45572;48.804;8.330;2023-03-26T02:34:00;8.30;95.30
3550;DHT22;45572;48.804;8.330;2023-03-26T02:36:31;8.40;95.10
3550;DHT22;45572;48.804;8.330;2023-03-26T02:39:03;8.40;95.00
3550;DHT22;45572;48.804;8.330;2023-03-26T02:41:34;8.40;94.90
3550;DHT22;45572;48.804;8.330;2023-03-26T02:44:06;8.30;95.10
3550;DHT22;45572;48.804;8.330;2023-03-26T02:46:54;8.30;95.00
3550;DHT22;45572;48.804;8.330;2023-03-26T02:49:43;8.30;95.10
3550;DHT22;45572;48.804;8.330;2023-03-26T02:52:18;8.40;95.10
3550;DHT22;45572;48.804;8.330;2023-03-26T02:54:48;8.40;95.00
3550;DHT22;45572;48.804;8.330;2023-03-26T02:57:18;8.40;94.80
3550;DHT22;45572;48.804;8.330;2023-03-26T02:59:59;8.50;94.70
3550;DHT22;45572;48.804;8.330;2023-03-26T03:02:37;8.50;94.70
3550;DHT22;45572;48.804;8.330;2023-03-26T03:05:27;8.50;94.60
3550;DHT22;45572;48.804;8.330;2023-03-26T03:08:14;8.50;94.40
3550;DHT22;45572;48.804;8.330;2023-03-26T03:11:01;8.50;94.40
3550;DHT22;45572;48.804;8.330;2023-03-26T03:13:37;8.50;94.40
3550;DHT22;45572;48.804;8.330;2023-03-26T03:16:06;8.50;94.50
3550;DHT22;45572;48.804;8.330;2023-03-26T03:18:34;8.60;94.30
3550;DHT22;45572;48.804;8.330;2023-03-26T03:21:05;8.60;93.90
3550;DHT22;45572;48.804;8.330;2023-03-26T03:23:33;8.60;93.90
3550;DHT22;45572;48.804;8.330;2023-03-26T03:26:11;8.60;94.10
3550;DHT22;45572;48.804;8.330;2023-03-26T03:28:41;8.60;94.20
3550;DHT22;45572;48.804;8.330;2023-03-26T03:31:13;8.60;94.20
3550;DHT22;45572;48.804;8.330;2023-03-26T03:33:41;8.70;94.30
3550;DHT22;45572;48.804;8.330;2023-03-26T03:36:11;8.70;94.00
3550;DHT22;45572;48.804;8.330;2023-03-26T03:38:52;8.80;93.80
3550;DHT22;45572;48.804;8.330;2023-03-26T03:41:22;8.80;93.80
3550;DHT22;45572;48.804;8.330;2023-03-26T03:43:50;8.80;93.70
3550;DHT22;45572;48.804;8.330;2023-03-26T03:46:24;8.80;93.50
3550;DHT22;45572;48.804;8.330;2023-03-26T03:48:52;8.80;93.40
3550;DHT22;45572;48.804;8.330;2023-03-26T03:51:27;8.70;93.40
3550;DHT22;45572;48.804;8.330;2023-03-26T03:53:57;8.70;93.70
3550;DHT22;45572;48.804;8.330;2023-03-26T03:56:45;8.70;94.00
3550;DHT22;45572;48.804;8.330;2023-03-26T03:59:32;8.70;94.10
3550;DHT22;45572;48.804;8.330;2023-03-26T04:02:03;8.70;94.10
3550;DHT22;45572;48.804;8.330;2023-03-26T04:04:38;8.70;94.00
3550;DHT22;45572;48.804;8.330;2023-03-26T04:07:11;8.70;93.90
3550;DHT22;45572;48.804;8.330;2023-03-26T04:09:59;8.70;94.10
3550;DHT22;45572;48.804;8.330;2023-03-26T04:12:49;8.60;94.00
3550;DHT22;45572;48.804;8.330;2023-03-26T04:15:20;8.60;94.00
3550;DHT22;45572;48.804;8.330;2023-03-26T04:17:48;8.60;94.00
3550;DHT22;45572;48.804;8.330;2023-03-26T04:20:19;8.60;94.00
3550;DHT22;45572;48.804;8.330;2023-03-26T04:22:50;8.70;93.90
3550;DHT22;45572;48.804;8.330;2023-03-26T04:25:20;8.70;93.70
3550;DHT22;45572;48.804;8.330;2023-03-26T04:27:54;8.60;93.60
3550;DHT22;45572;48.804;8.330;2023-03-26T04:30:40;8.40;94.20
3550;DHT22;45572;48.804;8.330;2023-03-26T04:33:25;8.40;94.50
3550;DHT22;45572;48.804;8.330;2023-03-26T04:35:54;8.50;94.70
3550;DHT22;45572;48.804;8.330;2023-03-26T04:38:31;8.60;94.60
3550;DHT22;45572;48.804;8.330;2023-03-26T04:41:02;8.70;94.40
3550;DHT22;45572;48.804;8.330;2023-03-26T04:43:52;8.70;94.00
3550;DHT22;45572;48.804;8.330;2023-03-26T04:46:32;8.80;93.60
3550;DHT22;45572;48.804;8.330;2023-03-26T04:49:09;8.80;93.50
3550;DHT22;45572;48.804;8.330;2023-03-26T04:51:38;8.80;93.20
3550;DHT22;45572;48.804;8.330;2023-03-26T04:54:22;8.80;93.40
3550;DHT22;45572;48.804;8.330;2023-03-26T04:56:58;8.80;93.20
3550;DHT22;45572;48.804;8.330;2023-03-26T04:59:35;8.80;93.10
3550;DHT22;45572;48.804;8.330;2023-03-26T05:02:07;8.80;93.40
3550;DHT22;45572;48.804;8.330;2023-03-26T05:04:44;8.70;93.30
3550;DHT22;45572;48.804;8.330;2023-03-26T05:07:16;8.70;93.10
3550;DHT22;45572;48.804;8.330;2023-03-26T05:09:50;8.70;93.50
3550;DHT22;45572;48.804;8.330;2023-03-26T05:12:22;8.70;93.10
3550;DHT22;45572;48.804;8.330;2023-03-26T05:14:56;8.80;92.90
3550;DHT22;45572;48.804;8.330;2023-03-26T05:17:44;8.80;92.30
3550;DHT22;45572;48.804;8.330;2023-03-26T05:20:22;8.80;92.10
3550;DHT22;45572;48.804;8.330;2023-03-26T05:22:52;8.80;92.20
3550;DHT22;45572;48.804;8.330;2023-03-26T05:25:26;8.80;91.90
3550;DHT22;45572;48.804;8.330;2023-03-26T05:27:55;8.90;92.00
3550;DHT22;45572;48.804;8.330;2023-03-26T05:30:29;8.90;92.20
3550;DHT22;45572;48.804;8.330;2023-03-26T05:32:59;8.90;92.10
3550;DHT22;45572;48.804;8.330;2023-03-26T05:35:38;9.10;92.20
3550;DHT22;45572;48.804;8.330;2023-03-26T05:38:08;9.00;91.30
3550;DHT22;45572;48.804;8.330;2023-03-26T05:40:38;9.10;92.10
3550;DHT22;45572;48.804;8.330;2023-03-26T05:43:07;9.00;91.20
3550;DHT22;45572;48.804;8.330;2023-03-26T05:45:39;8.90;91.00
3550;DHT22;45572;48.804;8.330;2023-03-26T05:48:16;9.00;91.60
3550;DHT22;45572;48.804;8.330;2023-03-26T05:50:44;8.90;91.70
3550;DHT22;45572;48.804;8.330;2023-03-26T05:53:14;9.00;91.70
3550;DHT22;45572;48.804;8.330;2023-03-26T05:56:03;8.90;91.70
3550;DHT22;45572;48.804;8.330;2023-03-26T05:58:54;8.90;91.60
3550;DHT22;45572;48.804;8.330;2023-03-26T06:01:42;8.90;91.30
3550;DHT22;45572;48.804;8.330;2023-03-26T06:04:32;8.80;91.90
3550;DHT22;45572;48.804;8.330;2023-03-26T06:07:21;8.70;92.10
3550;DHT22;45572;48.804;8.330;2023-03-26T06:10:07;8.60;92.40
3550;DHT22;45572;48.804;8.330;2023-03-26T06:12:45;8.60;92.10
3550;DHT22;45572;48.804;8.330;2023-03-26T06:15:13;8.80;91.90
3550;DHT22;45572;48.804;8.330;2023-03-26T06:17:46;8.80;91.80
3550;DHT22;45572;48.804;8.330;2023-03-26T06:20:33;9.00;91.50
3550;DHT22;45572;48.804;8.330;2023-03-26T06:23:07;9.00;91.70
3550;DHT22;45572;48.804;8.330;2023-03-26T06:25:55;9.00;92.10
3550;DHT22;45572;48.804;8.330;2023-03-26T06:28:43;8.80;92.60
3550;DHT22;45572;48.804;8.330;2023-03-26T06:31:25;8.80;93.60
3550;DHT22;45572;48.804;8.330;2023-03-26T06:34:09;8.80;93.90
3550;DHT22;45572;48.804;8.330;2023-03-26T06:36:40;8.80;94.50
3550;DHT22;45572;48.804;8.330;2023-03-26T06:39:08;8.90;94.60
3550;DHT22;45572;48.804;8.330;2023-03-26T06:41:44;8.90;94.80
3550;DHT22;45572;48.804;8.330;2023-03-26T06:44:26;9.00;94.40
3550;DHT22;45572;48.804;8.330;2023-03-26T06:47:14;9.00;94.30
3550;DHT22;45572;48.804;8.330;2023-03-26T06:50:03;9.10;94.30
3550;DHT22;45572;48.804;8.330;2023-03-26T06:52:39;9.10;94.40
3550;DHT22;45572;48.804;8.330;2023-03-26T06:55:21;9.10;94.50
3550;DHT22;45572;48.804;8.330;2023-03-26T06:58:11;9.20;94.50
3550;DHT22;45572;48.804;8.330;2023-03-26T07:01:00;9.30;94.50
3550;DHT22;45572;48.804;8.330;2023-03-26T07:03:50;9.30;94.40
3550;DHT22;45572;48.804;8.330;2023-03-26T07:06:38;9.30;94.30
3550;DHT22;45572;48.804;8.330;2023-03-26T07:09:25;9.40;94.70
3550;DHT22;45572;48.804;8.330;2023-03-26T07:12:15;9.40;95.00
3550;DHT22;45572;48.804;8.330;2023-03-26T07:15:04;9.30;95.30
3550;DHT22;45572;48.804;8.330;2023-03-26T07:17:53;9.30;95.50
3550;DHT22;45572;48.804;8.330;2023-03-26T07:20:25;9.40;95.60
3550;DHT22;45572;48.804;8.330;2023-03-26T07:22:55;9.30;95.40
3550;DHT22;45572;48.804;8.330;2023-03-26T07:25:43;9.30;95.40
3550;DHT22;45572;48.804;8.330;2023-03-26T07:28:22;9.20;95.50
3550;DHT22;45572;48.804;8.330;2023-03-26T07:31:20;9.20;95.40
3550;DHT22;45572;48.804;8.330;2023-03-26T07:34:25;9.20;95.30
3550;DHT22;45572;48.804;8.330;2023-03-26T07:37:22;9.20;95.60
3550;DHT22;45572;48.804;8.330;2023-03-26T07:40:19;9.10;95.80
3550;DHT22;45572;48.804;8.330;2023-03-26T07:43:16;9.10;95.80
3550;DHT22;45572;48.804;8.330;2023-03-26T07:46:10;9.10;96.10
3550;DHT22;45572;48.804;8.330;2023-03-26T07:48:50;9.10;96.30
3550;DHT22;45572;48.804;8.330;2023-03-26T07:51:42;9.20;96.20
3550;DHT22;45572;48.804;8.330;2023-03-26T07:54:24;9.10;96.40
3550;DHT22;45572;48.804;8.330;2023-03-26T07:57:12;9.10;96.70
3550;DHT22;45572;48.804;8.330;2023-03-26T08:00:02;9.10;96.80
3550;DHT22;45572;48.804;8.330;2023-03-26T08:03:07;9.00;96.60
3550;DHT22;45572;48.804;8.330;2023-03-26T08:06:06;9.00;96.80
3550;DHT22;45572;48.804;8.330;2023-03-26T08:08:55;9.10;96.80
3550;DHT22;45572;48.804;8.330;2023-03-26T08:11:52;9.10;96.80
3550;DHT22;45572;48.804;8.330;2023-03-26T08:14:30;8.90;96.80
3550;DHT22;45572;48.804;8.330;2023-03-26T08:17:05;8.90;96.80
3550;DHT22;45572;48.804;8.330;2023-03-26T08:19:44;8.90;96.80
3550;DHT22;45572;48.804;8.330;2023-03-26T08:22:17;9.00;96.80
3550;DHT22;45572;48.804;8.330;2023-03-26T08:25:03;9.10;96.80
3550;DHT22;45572;48.804;8.330;2023-03-26T08:27:38;9.30;96.80
3550;DHT22;45572;48.804;8.330;2023-03-26T08:30:10;9.40;96.80
3550;DHT22;45572;48.804;8.330;2023-03-26T08:32:41;9.80;96.80
3550;DHT22;45572;48.804;8.330;2023-03-26T08:35:10;10.50;96.80
3550;DHT22;45572;48.804;8.330;2023-03-26T08:37:38;10.60;95.80
3550;DHT22;45572;48.804;8.330;2023-03-26T08:40:10;11.20;96.10
3550;DHT22;45572;48.804;8.330;2023-03-26T08:42:57;12.10;93.50
3550;DHT22;45572;48.804;8.330;2023-03-26T08:48:47;12.80;88.80
3550;DHT22;45572;48.804;8.330;2023-03-26T08:51:40;12.50;88.50
3550;DHT22;45572;48.804;8.330;2023-03-26T08:54:32;12.20;89.50
3550;DHT22;45572;48.804;8.330;2023-03-26T08:57:23;12.10;90.30
3550;DHT22;45572;48.804;8.330;2023-03-26T09:00:08;12.10;91.40
3550;DHT22;45572;48.804;8.330;2023-03-26T09:08:55;11.90;90.00
3550;DHT22;45572;48.804;8.330;2023-03-26T09:11:42;12.60;90.80
3550;DHT22;45572;48.804;8.330;2023-03-26T09:14:29;13.60;85.60
3550;DHT22;45572;48.804;8.330;2023-03-26T09:20:06;15.90;80.80
3550;DHT22;45572;48.804;8.330;2023-03-26T09:25:41;16.30;77.30
3550;DHT22;45572;48.804;8.330;2023-03-26T09:28:45;16.10;73.70
3550;DHT22;45572;48.804;8.330;2023-03-26T09:34:27;16.00;74.60
3550;DHT22;45572;48.804;8.330;2023-03-26T09:37:12;16.70;72.00
3550;DHT22;45572;48.804;8.330;2023-03-26T09:39:50;17.40;69.20
3550;DHT22;45572;48.804;8.330;2023-03-26T09:42:25;17.30;68.80
3550;DHT22;45572;48.804;8.330;2023-03-26T09:48:04;17.30;69.20
3550;DHT22;45572;48.804;8.330;2023-03-26T09:50:41;17.70;67.50
3550;DHT22;45572;48.804;8.330;2023-03-26T09:53:32;17.30;67.70
3550;DHT22;45572;48.804;8.330;2023-03-26T09:56:10;18.40;68.60
3550;DHT22;45572;48.804;8.330;2023-03-26T09:58:54;18.80;63.60
3550;DHT22;45572;48.804;8.330;2023-03-26T10:01:30;19.50;62.00
3550;DHT22;45572;48.804;8.330;2023-03-26T10:04:30;19.10;63.20
3550;DHT22;45572;48.804;8.330;2023-03-26T10:07:06;20.20;61.30
3550;DHT22;45572;48.804;8.330;2023-03-26T10:09:47;19.90;60.50
3550;DHT22;45572;48.804;8.330;2023-03-26T10:12:24;20.40;59.70
3550;DHT22;45572;48.804;8.330;2023-03-26T10:15:03;21.10;58.70
3550;DHT22;45572;48.804;8.330;2023-03-26T10:17:45;22.00;56.90
3550;DHT22;45572;48.804;8.330;2023-03-26T10:20:29;20.50;56.80
3550;DHT22;45572;48.804;8.330;2023-03-26T10:23:06;20.00;59.40
3550;DHT22;45572;48.804;8.330;2023-03-26T10:25:55;20.10;59.10
3550;DHT22;45572;48.804;8.330;2023-03-26T10:28:36;19.70;59.30
3550;DHT22;45572;48.804;8.330;2023-03-26T10:31:15;19.30;59.80
3550;DHT22;45572;48.804;8.330;2023-03-26T10:33:53;18.70;60.40
3550;DHT22;45572;48.804;8.330;2023-03-26T10:36:29;18.30;64.40
3550;DHT22;45572;48.804;8.330;2023-03-26T10:39:09;17.10;64.60
3550;DHT22;45572;48.804;8.330;2023-03-26T10:42:08;17.00;67.00
3550;DHT22;45572;48.804;8.330;2023-03-26T10:44:53;16.70;65.40
3550;DHT22;45572;48.804;8.330;2023-03-26T10:47:39;16.20;67.90
3550;DHT22;45572;48.804;8.330;2023-03-26T10:50:22;15.90;70.30
3550;DHT22;45572;48.804;8.330;2023-03-26T10:52:59;15.30;75.40
3550;DHT22;45572;48.804;8.330;2023-03-26T10:55:33;15.00;77.20
3550;DHT22;45572;48.804;8.330;2023-03-26T10:58:08;14.80;77.50
3550;DHT22;45572;48.804;8.330;2023-03-26T11:00:43;14.60;79.70
3550;DHT22;45572;48.804;8.330;2023-03-26T11:03:29;14.10;81.40
3550;DHT22;45572;48.804;8.330;2023-03-26T11:06:10;13.80;82.50
3550;DHT22;45572;48.804;8.330;2023-03-26T11:08:55;13.40;82.50
3550;DHT22;45572;48.804;8.330;2023-03-26T11:11:30;13.00;84.60
3550;DHT22;45572;48.804;8.330;2023-03-26T11:14:09;12.70;85.40
3550;DHT22;45572;48.804;8.330;2023-03-26T11:16:54;12.50;84.60
3550;DHT22;45572;48.804;8.330;2023-03-26T11:19:29;12.40;85.30
3550;DHT22;45572;48.804;8.330;2023-03-26T11:22:02;12.30;86.50
3550;DHT22;45572;48.804;8.330;2023-03-26T11:24:47;12.60;85.50
3550;DHT22;45572;48.804;8.330;2023-03-26T11:27:29;12.60;84.70
3550;DHT22;45572;48.804;8.330;2023-03-26T11:30:08;12.60;84.70
3550;DHT22;45572;48.804;8.330;2023-03-26T11:32:41;12.80;84.50
3550;DHT22;45572;48.804;8.330;2023-03-26T11:35:16;12.70;83.80
3550;DHT22;45572;48.804;8.330;2023-03-26T11:38:12;12.60;83.60
3550;DHT22;45572;48.804;8.330;2023-03-26T11:40:47;13.10;80.80
3550;DHT22;45572;48.804;8.330;2023-03-26T11:43:34;14.40;81.50
3550;DHT22;45572;48.804;8.330;2023-03-26T11:46:06;15.60;73.60
3550;DHT22;45572;48.804;8.330;2023-03-26T11:48:39;15.80;70.50
3550;DHT22;45572;48.804;8.330;2023-03-26T11:51:13;16.30;66.90
3550;DHT22;45572;48.804;8.330;2023-03-26T11:53:43;16.70;64.30
3550;DHT22;45572;48.804;8.330;2023-03-26T11:56:18;17.10;64.80
3550;DHT22;45572;48.804;8.330;2023-03-26T11:58:52;18.10;63.80
3550;DHT22;45572;48.804;8.330;2023-03-26T12:01:26;18.60;58.60
3550;DHT22;45572;48.804;8.330;2023-03-26T12:03:58;19.20;59.10
3550;DHT22;45572;48.804;8.330;2023-03-26T12:06:30;19.40;57.30
3550;DHT22;45572;48.804;8.330;2023-03-26T12:08:58;19.80;54.80
3550;DHT22;45572;48.804;8.330;2023-03-26T12:11:29;19.40;56.80
3550;DHT22;45572;48.804;8.330;2023-03-26T12:14:04;18.90;55.60
3550;DHT22;45572;48.804;8.330;2023-03-26T12:16:33;17.90;56.80
3550;DHT22;45572;48.804;8.330;2023-03-26T12:19:04;16.90;58.40
3550;DHT22;45572;48.804;8.330;2023-03-26T12:21:47;15.90;60.50
3550;DHT22;45572;48.804;8.330;2023-03-26T12:24:26;15.20;63.80
3550;DHT22;45572;48.804;8.330;2023-03-26T12:27:00;14.90;65.30
3550;DHT22;45572;48.804;8.330;2023-03-26T12:29:29;14.70;68.70
3550;DHT22;45572;48.804;8.330;2023-03-26T12:32:06;14.60;70.70
3550;DHT22;45572;48.804;8.330;2023-03-26T12:34:39;14.50;72.30
3550;DHT22;45572;48.804;8.330;2023-03-26T12:37:32;14.50;70.60
3550;DHT22;45572;48.804;8.330;2023-03-26T12:40:07;14.50;71.80
3550;DHT22;45572;48.804;8.330;2023-03-26T12:42:51;14.60;75.10
3550;DHT22;45572;48.804;8.330;2023-03-26T12:45:42;15.00;75.60
3550;DHT22;45572;48.804;8.330;2023-03-26T12:48:13;15.30;76.00
3550;DHT22;45572;48.804;8.330;2023-03-26T12:50:53;15.50;72.40
3550;DHT22;45572;48.804;8.330;2023-03-26T12:53:41;15.90;73.30
3550;DHT22;45572;48.804;8.330;2023-03-26T12:56:19;16.40;72.30
3550;DHT22;45572;48.804;8.330;2023-03-26T12:59:07;16.80;68.40
3550;DHT22;45572;48.804;8.330;2023-03-26T13:01:48;16.90;66.70
3550;DHT22;45572;48.804;8.330;2023-03-26T13:04:33;17.10;70.80
3550;DHT22;45572;48.804;8.330;2023-03-26T13:07:09;17.50;67.10
3550;DHT22;45572;48.804;8.330;2023-03-26T13:09:52;17.00;65.90
3550;DHT22;45572;48.804;8.330;2023-03-26T13:12:34;16.80;64.20
3550;DHT22;45572;48.804;8.330;2023-03-26T13:15:15;16.90;63.40
3550;DHT22;45572;48.804;8.330;2023-03-26T13:17:52;16.50;61.00
3550;DHT22;45572;48.804;8.330;2023-03-26T13:20:28;16.30;59.00
3550;DHT22;45572;48.804;8.330;2023-03-26T13:23:01;15.80;59.90
3550;DHT22;45572;48.804;8.330;2023-03-26T13:25:37;15.60;59.90
3550;DHT22;45572;48.804;8.330;2023-03-26T13:28:17;15.50;62.60
3550;DHT22;45572;48.804;8.330;2023-03-26T13:30:56;15.40;61.30
3550;DHT22;45572;48.804;8.330;2023-03-26T13:33:38;15.30;61.00
3550;DHT22;45572;48.804;8.330;2023-03-26T13:36:09;15.10;62.20
3550;DHT22;45572;48.804;8.330;2023-03-26T13:39:00;14.90;60.10
3550;DHT22;45572;48.804;8.330;2023-03-26T13:41:39;14.80;61.20
3550;DHT22;45572;48.804;8.330;2023-03-26T13:44:16;14.70;61.70
3550;DHT22;45572;48.804;8.330;2023-03-26T13:46:53;14.70;63.00
3550;DHT22;45572;48.804;8.330;2023-03-26T13:49:27;14.60;64.00
3550;DHT22;45572;48.804;8.330;2023-03-26T13:52:06;14.40;65.20
3550;DHT22;45572;48.804;8.330;2023-03-26T13:54:38;14.20;66.20
3550;DHT22;45572;48.804;8.330;2023-03-26T13:57:15;13.90;69.10
3550;DHT22;45572;48.804;8.330;2023-03-26T13:59:49;12.70;80.00
3550;DHT22;45572;48.804;8.330;2023-03-26T14:02:23;11.50;84.40
3550;DHT22;45572;48.804;8.330;2023-03-26T14:04:57;10.70;87.20
3550;DHT22;45572;48.804;8.330;2023-03-26T14:07:31;10.50;89.80
3550;DHT22;45572;48.804;8.330;2023-03-26T14:10:04;10.20;90.00
3550;DHT22;45572;48.804;8.330;2023-03-26T14:12:43;9.90;91.60
3550;DHT22;45572;48.804;8.330;2023-03-26T14:15:20;9.50;93.00
3550;DHT22;45572;48.804;8.330;2023-03-26T14:17:54;9.10;93.50
3550;DHT22;45572;48.804;8.330;2023-03-26T14:20:39;9.20;94.80
3550;DHT22;45572;48.804;8.330;2023-03-26T14:23:30;9.20;94.80
3550;DHT22;45572;48.804;8.330;2023-03-26T14:26:09;9.30;95.30
3550;DHT22;45572;48.804;8.330;2023-03-26T14:29:08;9.20;94.80
3550;DHT22;45572;48.804;8.330;2023-03-26T14:31:44;9.10;95.50
3550;DHT22;45572;48.804;8.330;2023-03-26T14:34:27;8.90;95.20
3550;DHT22;45572;48.804;8.330;2023-03-26T14:40:01;8.70;95.80
3550;DHT22;45572;48.804;8.330;2023-03-26T14:42:44;8.70;96.50
3550;DHT22;45572;48.804;8.330;2023-03-26T14:45:34;8.60;95.20
3550;DHT22;45572;48.804;8.330;2023-03-26T14:48:25;8.70;95.90
3550;DHT22;45572;48.804;8.330;2023-03-26T14:51:07;8.60;96.10
3550;DHT22;45572;48.804;8.330;2023-03-26T14:53:42;8.50;95.90
3550;DHT22;45572;48.804;8.330;2023-03-26T14:56:35;8.60;96.50
3550;DHT22;45572;48.804;8.330;2023-03-26T15:02:28;9.00;96.50
3550;DHT22;45572;48.804;8.330;2023-03-26T15:05:31;9.00;95.80
3550;DHT22;45572;48.804;8.330;2023-03-26T15:08:34;9.10;95.80
3550;DHT22;45572;48.804;8.330;2023-03-26T15:11:18;9.20;94.50
3550;DHT22;45572;48.804;8.330;2023-03-26T15:14:00;9.10;94.20
3550;DHT22;45572;48.804;8.330;2023-03-26T15:16:51;9.00;94.30
3550;DHT22;45572;48.804;8.330;2023-03-26T15:19:44;9.00;94.70
3550;DHT22;45572;48.804;8.330;2023-03-26T15:22:36;9.10;94.10
3550;DHT22;45572;48.804;8.330;2023-03-26T15:25:37;8.90;94.10
3550;DHT22;45572;48.804;8.330;2023-03-26T15:31:09;8.80;95.70
3550;DHT22;45572;48.804;8.330;2023-03-26T15:39:39;8.80;96.00
3550;DHT22;45572;48.804;8.330;2023-03-26T15:42:31;8.90;96.10
3550;DHT22;45572;48.804;8.330;2023-03-26T15:45:21;9.10;96.10
3550;DHT22;45572;48.804;8.330;2023-03-26T15:48:04;9.20;95.40
3550;DHT22;45572;48.804;8.330;2023-03-26T15:50:46;9.20;94.50
3550;DHT22;45572;48.804;8.330;2023-03-26T15:53:23;9.20;94.40
3550;DHT22;45572;48.804;8.330;2023-03-26T15:56:04;9.20;93.30
3550;DHT22;45572;48.804;8.330;2023-03-26T15:58:43;9.00;93.60
3550;DHT22;45572;48.804;8.330;2023-03-26T16:01:20;9.00;94.40
3550;DHT22;45572;48.804;8.330;2023-03-26T16:04:00;8.90;93.60
3550;DHT22;45572;48.804;8.330;2023-03-26T16:06:37;9.00;94.60
3550;DHT22;45572;48.804;8.330;2023-03-26T16:09:31;9.10;93.50
3550;DHT22;45572;48.804;8.330;2023-03-26T16:12:27;9.40;94.00
3550;DHT22;45572;48.804;8.330;2023-03-26T16:15:22;9.50;92.50
3550;DHT22;45572;48.804;8.330;2023-03-26T16:18:16;9.50;92.00
3550;DHT22;45572;48.804;8.330;2023-03-26T16:20:50;9.50;92.70
3550;DHT22;45572;48.804;8.330;2023-03-26T16:23:26;9.50;92.20
3550;DHT22;45572;48.804;8.330;2023-03-26T16:25:59;9.30;91.50
3550;DHT22;45572;48.804;8.330;2023-03-26T16:29:04;9.00;90.50
3550;DHT22;45572;48.804;8.330;2023-03-26T16:31:57;9.00;92.10
3550;DHT22;45572;48.804;8.330;2023-03-26T16:34:27;8.90;90.40
3550;DHT22;45572;48.804;8.330;2023-03-26T16:37:14;9.00;91.30
3550;DHT22;45572;48.804;8.330;2023-03-26T16:39:53;9.00;90.70
3550;DHT22;45572;48.804;8.330;2023-03-26T16:42:31;8.90;90.50
3550;DHT22;45572;48.804;8.330;2023-03-26T16:45:12;9.00;91.50
3550;DHT22;45572;48.804;8.330;2023-03-26T16:47:50;8.90;91.20
3550;DHT22;45572;48.804;8.330;2023-03-26T16:50:25;8.90;90.10
3550;DHT22;45572;48.804;8.330;2023-03-26T16:53:07;8.90;90.60
3550;DHT22;45572;48.804;8.330;2023-03-26T16:55:45;8.90;90.80
3550;DHT22;45572;48.804;8.330;2023-03-26T16:58:29;9.00;90.40
3550;DHT22;45572;48.804;8.330;2023-03-26T17:01:07;8.90;89.90
3550;DHT22;45572;48.804;8.330;2023-03-26T17:03:48;9.00;90.60
3550;DHT22;45572;48.804;8.330;2023-03-26T17:06:29;9.20;91.60
3550;DHT22;45572;48.804;8.330;2023-03-26T17:09:03;9.20;90.10
3550;DHT22;45572;48.804;8.330;2023-03-26T17:11:44;9.20;89.20
3550;DHT22;45572;48.804;8.330;2023-03-26T17:14:24;9.10;89.20
3550;DHT22;45572;48.804;8.330;2023-03-26T17:17:15;9.20;89.00
3550;DHT22;45572;48.804;8.330;2023-03-26T17:19:52;9.20;89.40
3550;DHT22;45572;48.804;8.330;2023-03-26T17:22:33;9.20;89.50
3550;DHT22;45572;48.804;8.330;2023-03-26T17:25:29;9.10;89.20
3550;DHT22;45572;48.804;8.330;2023-03-26T17:28:28;9.10;88.70
3550;DHT22;45572;48.804;8.330;2023-03-26T17:31:04;9.10;89.20
3550;DHT22;45572;48.804;8.330;2023-03-26T17:33:41;9.10;88.70
3550;DHT22;45572;48.804;8.330;2023-03-26T17:36:28;9.10;89.20
3550;DHT22;45572;48.804;8.330;2023-03-26T17:39:03;9.10;88.50
3550;DHT22;45572;48.804;8.330;2023-03-26T17:41:54;9.10;88.20
3550;DHT22;45572;48.804;8.330;2023-03-26T17:44:36;9.20;89.60
3550;DHT22;45572;48.804;8.330;2023-03-26T17:47:17;9.20;88.60
3550;DHT22;45572;48.804;8.330;2023-03-26T17:49:49;9.20;89.50